createdAt,value
2022-07-29T00:02:18.586Z,99899.00
2022-07-29T00:04:46.941Z,99900.31
2022-07-29T00:07:15.134Z,99898.34
2022-07-29T00:09:51.973Z,99899.84
2022-07-29T00:12:26.208Z,99891.53
2022-07-29T00:14:56.067Z,99893.09
2022-07-29T00:17:25.823Z,99882.47
2022-07-29T00:19:54.298Z,99892.69
2022-07-29T00:22:22.423Z,99894.59
2022-07-29T00:24:51.165Z,99902.50
2022-07-29T00:27:19.374Z,99892.63
2022-07-29T00:29:47.941Z,99892.28
2022-07-29T00:32:16.394Z,99893.78
2022-07-29T00:35:03.492Z,99900.72
2022-07-29T00:37:32.067Z,99895.28
2022-07-29T00:40:00.411Z,99892.63
2022-07-29T00:42:28.906Z,99896.78
2022-07-29T00:44:57.308Z,99891.44
2022-07-29T00:47:25.314Z,99893.06
2022-07-29T00:49:53.601Z,99889.03
2022-07-29T00:52:22.942Z,99892.25
2022-07-29T00:54:51.212Z,99876.19
2022-07-29T00:57:19.660Z,99891.66
2022-07-29T00:59:48.143Z,99885.88
2022-07-29T01:02:16.261Z,99898.09
2022-07-29T01:04:44.766Z,99885.38
2022-07-29T01:07:13.804Z,99891.94
2022-07-29T01:09:46.737Z,99886.66
2022-07-29T01:12:20.348Z,99884.53
2022-07-29T01:14:50.519Z,99882.81
2022-07-29T01:17:19.131Z,99887.25
2022-07-29T01:20:03.633Z,99876.63
2022-07-29T01:22:34.969Z,99880.41
2022-07-29T01:25:40.663Z,99881.19
2022-07-29T01:28:33.436Z,99875.69
2022-07-29T01:31:04.347Z,99882.94
2022-07-29T01:33:51.525Z,99877.03
2022-07-29T01:36:41.678Z,99869.38
2022-07-29T01:39:31.132Z,99870.13
2022-07-29T01:42:17.154Z,99877.06
2022-07-29T01:45:14.626Z,99878.03
2022-07-29T01:48:17.855Z,99875.53
2022-07-29T01:50:52.998Z,99869.84
2022-07-29T01:54:03.568Z,99869.53
2022-07-29T01:56:34.745Z,99867.97
2022-07-29T01:59:05.697Z,99870.84
2022-07-29T02:01:34.922Z,99866.94
2022-07-29T02:04:06.577Z,99859.78
2022-07-29T02:06:38.409Z,99855.00
2022-07-29T02:09:08.684Z,99865.38
2022-07-29T02:11:38.892Z,99869.03
2022-07-29T02:14:09.993Z,99869.66
2022-07-29T02:16:40.966Z,99864.03
2022-07-29T02:19:11.634Z,99860.75
2022-07-29T02:21:41.464Z,99858.66
2022-07-29T02:24:12.795Z,99858.66
2022-07-29T02:26:44.152Z,99848.53
2022-07-29T02:29:15.140Z,99859.13
2022-07-29T02:31:48.253Z,99854.25
2022-07-29T02:34:20.098Z,99857.03
2022-07-29T02:36:49.700Z,99853.78
2022-07-29T02:39:19.635Z,99852.81
2022-07-29T02:41:56.650Z,99849.75
2022-07-29T02:44:31.257Z,99847.38
2022-07-29T02:47:31.592Z,99851.72
2022-07-29T02:50:15.605Z,99849.97
2022-07-29T02:53:03.244Z,99846.66
2022-07-29T02:55:37.043Z,99851.78
2022-07-29T02:58:17.285Z,99846.81
2022-07-29T03:00:48.607Z,99847.97
2022-07-29T03:03:18.436Z,99856.50
2022-07-29T03:05:47.142Z,99856.31
2022-07-29T03:08:17.422Z,99850.56
2022-07-29T03:10:48.143Z,99856.66
2022-07-29T03:13:17.190Z,99855.31
2022-07-29T03:15:46.414Z,99859.41
2022-07-29T03:18:15.825Z,99853.75
2022-07-29T03:20:44.651Z,99860.91
2022-07-29T03:23:12.969Z,99859.62
2022-07-29T03:25:41.026Z,99868.12
2022-07-29T03:28:09.786Z,99858.75
2022-07-29T03:30:38.074Z,99864.09
2022-07-29T03:33:13.466Z,99862.22
2022-07-29T03:35:42.708Z,99864.41
2022-07-29T03:38:10.813Z,99849.75
2022-07-29T03:40:47.737Z,99861.50
2022-07-29T03:43:18.990Z,99863.06
2022-07-29T03:45:51.098Z,99854.63
2022-07-29T03:48:23.222Z,99845.28
2022-07-29T03:50:52.312Z,99856.81
2022-07-29T03:53:20.868Z,99863.50
2022-07-29T03:55:57.557Z,99860.78
2022-07-29T03:58:28.541Z,99861.56
2022-07-29T04:00:57.702Z,99863.00
2022-07-29T04:03:26.886Z,99865.81
2022-07-29T04:06:09.329Z,99862.38
2022-07-29T04:08:38.330Z,99863.59
2022-07-29T04:11:06.926Z,99865.16
2022-07-29T04:13:35.096Z,99869.22
2022-07-29T04:16:03.701Z,99867.03
2022-07-29T04:18:32.010Z,99869.72
2022-07-29T04:21:01.813Z,99874.06
2022-07-29T04:23:33.622Z,99876.44
2022-07-29T04:26:02.157Z,99879.84
2022-07-29T04:28:30.624Z,99871.91
2022-07-29T04:30:58.771Z,99866.75
2022-07-29T04:33:27.148Z,99871.94
2022-07-29T04:35:55.496Z,99876.22
2022-07-29T04:38:23.951Z,99871.44
2022-07-29T04:40:52.125Z,99871.63
2022-07-29T04:43:23.273Z,99876.53
2022-07-29T04:45:51.826Z,99875.91
2022-07-29T04:48:23.984Z,99875.34
2022-07-29T04:50:57.452Z,99872.69
2022-07-29T04:53:26.186Z,99873.31
2022-07-29T04:55:54.418Z,99875.69
2022-07-29T04:58:24.675Z,99871.84
2022-07-29T05:00:53.108Z,99876.38
2022-07-29T05:03:21.392Z,99881.78
2022-07-29T05:05:49.689Z,99872.94
2022-07-29T05:08:18.428Z,99878.81
2022-07-29T05:10:46.830Z,99883.62
2022-07-29T05:13:15.045Z,99876.53
2022-07-29T05:15:43.649Z,99875.88
2022-07-29T05:18:11.877Z,99872.81
2022-07-29T05:20:40.129Z,99870.44
2022-07-29T05:23:08.626Z,99876.06
2022-07-29T05:25:43.550Z,99873.59
2022-07-29T05:28:13.612Z,99875.12
2022-07-29T05:30:42.072Z,99872.06
2022-07-29T05:33:35.606Z,99880.97
2022-07-29T05:36:00.947Z,99883.56
2022-07-29T05:38:30.141Z,99875.91
2022-07-29T05:41:00.302Z,99884.59
2022-07-29T05:43:30.984Z,99883.88
2022-07-29T05:45:59.873Z,99885.91
2022-07-29T05:48:28.475Z,99885.28
2022-07-29T05:50:56.636Z,99881.84
2022-07-29T05:53:25.110Z,99872.72
2022-07-29T05:55:53.721Z,99877.16
2022-07-29T05:58:22.477Z,99879.59
2022-07-29T06:00:50.894Z,99885.47
2022-07-29T06:03:19.388Z,99887.78
2022-07-29T06:05:47.451Z,99886.03
2022-07-29T06:08:15.551Z,99890.22
2022-07-29T06:10:44.590Z,99882.38
2022-07-29T06:13:13.470Z,99887.69
2022-07-29T06:15:41.757Z,99892.19
2022-07-29T06:18:11.237Z,99892.97
2022-07-29T06:20:39.393Z,99886.81
2022-07-29T06:23:07.649Z,99891.44
2022-07-29T06:25:37.758Z,99889.53
2022-07-29T06:28:05.961Z,99890.38
2022-07-29T06:30:34.085Z,99897.62
2022-07-29T06:33:03.308Z,99897.50
2022-07-29T06:35:39.278Z,99897.28
2022-07-29T06:38:31.685Z,99904.50
2022-07-29T06:41:00.996Z,99899.81
2022-07-29T06:43:33.201Z,99893.59
2022-07-29T06:46:03.747Z,99894.72
2022-07-29T06:48:33.064Z,99908.06
2022-07-29T06:51:01.782Z,99908.06
2022-07-29T06:53:30.924Z,99903.81
2022-07-29T06:56:01.026Z,99904.88
2022-07-29T06:58:30.340Z,99904.66
2022-07-29T07:01:01.661Z,99914.56
2022-07-29T07:03:30.228Z,99913.44
2022-07-29T07:05:58.512Z,99904.34
2022-07-29T07:08:28.336Z,99905.44
2022-07-29T07:10:57.909Z,99910.69
2022-07-29T07:13:26.157Z,99913.59
2022-07-29T07:15:54.390Z,99912.25
2022-07-29T07:18:22.890Z,99905.22
2022-07-29T07:20:51.407Z,99909.53
2022-07-29T07:23:19.617Z,99904.38
2022-07-29T07:25:48.049Z,99903.53
2022-07-29T07:28:16.476Z,99903.03
2022-07-29T07:30:46.333Z,99904.19
2022-07-29T07:33:15.369Z,99897.62
2022-07-29T07:35:43.709Z,99900.13
2022-07-29T07:38:11.981Z,99897.31
2022-07-29T07:40:40.430Z,99896.81
2022-07-29T07:43:08.661Z,99897.66
2022-07-29T07:45:38.470Z,99904.09
2022-07-29T07:48:07.180Z,99896.84
2022-07-29T07:50:35.381Z,99886.34
2022-07-29T07:53:03.958Z,99889.31
2022-07-29T07:55:53.213Z,99897.19
2022-07-29T07:58:20.971Z,99889.28
2022-07-29T08:00:49.601Z,99889.13
2022-07-29T08:03:18.020Z,99893.81
2022-07-29T08:05:47.613Z,99886.06
2022-07-29T08:08:15.830Z,99886.84
2022-07-29T08:10:53.242Z,99885.28
2022-07-29T08:13:23.111Z,99884.50
2022-07-29T08:16:12.573Z,99879.59
2022-07-29T08:18:42.631Z,99883.56
2022-07-29T08:21:11.362Z,99881.19
2022-07-29T08:23:55.867Z,99882.75
2022-07-29T08:26:27.317Z,99882.19
2022-07-29T08:28:55.976Z,99884.25
2022-07-29T08:31:24.196Z,99877.97
2022-07-29T08:33:52.679Z,99878.97
2022-07-29T08:36:22.202Z,99879.81
2022-07-29T08:38:51.070Z,99878.37
2022-07-29T08:41:20.770Z,99880.97
2022-07-29T08:43:50.961Z,99877.81
2022-07-29T08:46:20.306Z,99873.19
2022-07-29T08:48:49.045Z,99870.38
2022-07-29T08:51:19.672Z,99871.94
2022-07-29T08:53:49.868Z,99874.75
2022-07-29T08:56:20.453Z,99877.50
2022-07-29T08:58:52.013Z,99878.50
2022-07-29T09:01:36.273Z,99867.00
2022-07-29T09:04:13.193Z,99868.59
2022-07-29T09:06:47.396Z,99861.00
2022-07-29T09:09:16.485Z,99867.62
2022-07-29T09:11:45.251Z,99864.19
2022-07-29T09:14:14.772Z,99865.91
2022-07-29T09:16:55.411Z,99858.13
2022-07-29T09:19:28.128Z,99858.38
2022-07-29T09:22:04.274Z,99851.44
2022-07-29T09:24:47.115Z,99854.16
2022-07-29T09:27:18.647Z,99857.38
2022-07-29T09:29:47.937Z,99858.16
2022-07-29T09:32:16.467Z,99855.25
2022-07-29T09:34:44.949Z,99859.94
2022-07-29T09:37:13.191Z,99855.56
2022-07-29T09:39:47.840Z,99850.22
2022-07-29T09:42:29.888Z,99839.03
2022-07-29T09:44:58.371Z,99843.50
2022-07-29T09:47:42.954Z,99846.03
2022-07-29T09:50:11.818Z,99837.47
2022-07-29T09:52:51.583Z,99836.28
2022-07-29T09:55:20.522Z,99831.22
2022-07-29T09:57:48.763Z,99826.09
2022-07-29T10:00:19.894Z,99834.75
2022-07-29T10:02:49.124Z,99826.28
2022-07-29T10:05:23.836Z,99823.09
2022-07-29T10:07:54.167Z,99830.41
2022-07-29T10:10:31.618Z,99833.53
2022-07-29T10:13:07.215Z,99826.13
2022-07-29T10:15:45.411Z,99824.19
2022-07-29T10:18:15.553Z,99819.94
2022-07-29T10:20:43.841Z,99816.16
2022-07-29T10:23:12.161Z,99822.78
2022-07-29T10:25:45.676Z,99818.28
2022-07-29T10:28:16.705Z,99816.34
2022-07-29T10:30:47.846Z,99812.88
2022-07-29T10:33:34.164Z,99811.16
2022-07-29T10:36:15.550Z,99808.06
2022-07-29T10:39:15.557Z,99802.97
2022-07-29T10:42:16.987Z,99810.69
2022-07-29T10:44:48.797Z,99803.50
2022-07-29T10:47:28.271Z,99789.44
2022-07-29T10:50:07.265Z,99794.22
2022-07-29T10:52:54.699Z,99794.75
2022-07-29T10:55:45.685Z,99780.03
2022-07-29T10:58:20.022Z,99786.09
2022-07-29T11:00:54.376Z,99778.91
2022-07-29T11:03:49.211Z,99785.31
2022-07-29T11:06:26.654Z,99781.19
2022-07-29T11:12:39.539Z,99777.69
2022-07-29T11:18:01.968Z,99772.81
2022-07-29T11:20:37.757Z,99764.03
2022-07-29T11:23:42.804Z,99762.28
2022-07-29T11:26:18.930Z,99755.75
2022-07-29T11:29:29.358Z,99752.97
2022-07-29T11:32:15.950Z,99743.41
2022-07-29T11:35:17.292Z,99752.69
2022-07-29T11:37:55.804Z,99743.91
2022-07-29T11:40:26.181Z,99733.81
2022-07-29T11:42:54.994Z,99742.47
2022-07-29T11:45:42.063Z,99748.03
2022-07-29T11:51:13.348Z,99734.22
2022-07-29T11:53:48.168Z,99734.31
2022-07-29T11:56:22.650Z,99739.56
2022-07-29T11:59:09.652Z,99736.09
2022-07-29T12:01:38.246Z,99734.81
2022-07-29T12:04:07.887Z,99726.19
2022-07-29T12:06:36.451Z,99731.34
2022-07-29T12:09:11.303Z,99721.56
2022-07-29T12:11:45.030Z,99721.50
2022-07-29T12:14:29.563Z,99715.94
2022-07-29T12:16:59.501Z,99707.94
2022-07-29T12:19:28.249Z,99709.94
2022-07-29T12:22:00.864Z,99702.94
2022-07-29T12:24:45.201Z,99707.03
2022-07-29T12:27:18.185Z,99702.00
2022-07-29T12:30:00.752Z,99692.31
2022-07-29T12:32:41.197Z,99677.75
2022-07-29T12:35:15.892Z,99691.53
2022-07-29T12:37:46.011Z,99687.22
2022-07-29T12:40:17.619Z,99683.84
2022-07-29T12:43:10.481Z,99679.13
2022-07-29T12:45:40.741Z,99671.34
2022-07-29T12:48:12.295Z,99668.28
2022-07-29T12:50:58.395Z,99666.56
2022-07-29T12:53:27.774Z,99659.38
2022-07-29T12:55:58.264Z,99658.41
2022-07-29T12:58:31.843Z,99655.97
2022-07-29T13:01:20.462Z,99652.28
2022-07-29T13:04:01.888Z,99648.78
2022-07-29T13:06:37.693Z,99653.00
2022-07-29T13:09:10.351Z,99649.78
2022-07-29T13:11:46.543Z,99653.28
2022-07-29T13:14:35.503Z,99649.28
2022-07-29T13:17:12.324Z,99635.59
2022-07-29T13:19:49.536Z,99635.09
2022-07-29T13:22:25.666Z,99633.94
2022-07-29T13:25:03.136Z,99638.88
2022-07-29T13:27:34.333Z,99629.94
2022-07-29T13:30:06.463Z,99621.84
2022-07-29T13:32:35.980Z,99621.44
2022-07-29T13:35:07.470Z,99623.94
2022-07-29T13:37:39.531Z,99613.75
2022-07-29T13:40:09.619Z,99618.66
2022-07-29T13:42:38.489Z,99617.03
2022-07-29T13:45:07.774Z,99608.44
2022-07-29T13:47:36.304Z,99607.38
2022-07-29T13:50:06.743Z,99609.44
2022-07-29T13:52:35.677Z,99607.06
2022-07-29T13:55:04.989Z,99607.66
2022-07-29T13:57:33.528Z,99600.66
2022-07-29T14:00:01.652Z,99598.94
2022-07-29T14:02:36.749Z,99594.25
2022-07-29T14:05:08.687Z,99593.53
2022-07-29T14:07:40.583Z,99592.53
2022-07-29T14:10:09.554Z,99589.03
2022-07-29T14:12:39.238Z,99579.53
2022-07-29T14:15:07.951Z,99586.31
2022-07-29T14:17:36.434Z,99580.78
2022-07-29T14:20:05.700Z,99578.75
2022-07-29T14:22:37.829Z,99567.91
2022-07-29T14:25:14.533Z,99564.41
2022-07-29T14:27:44.887Z,99570.72
2022-07-29T14:30:14.052Z,99561.84
2022-07-29T14:32:42.443Z,99572.69
2022-07-29T14:35:10.815Z,99574.91
2022-07-29T14:37:40.607Z,99571.97
2022-07-29T14:40:10.577Z,99563.69
2022-07-29T14:42:39.544Z,99558.44
2022-07-29T14:45:10.176Z,99558.44
2022-07-29T14:47:39.433Z,99556.47
2022-07-29T14:50:09.306Z,99554.97
2022-07-29T14:52:37.528Z,99553.47
2022-07-29T14:55:06.119Z,99548.91
2022-07-29T14:57:49.260Z,99548.59
2022-07-29T15:00:18.920Z,99541.69
2022-07-29T15:03:01.552Z,99538.06
2022-07-29T15:05:32.245Z,99533.25
2022-07-29T15:08:00.787Z,99532.69
2022-07-29T15:10:29.188Z,99536.34
2022-07-29T15:12:58.423Z,99535.31
2022-07-29T15:15:26.953Z,99527.78
2022-07-29T15:17:55.208Z,99535.87
2022-07-29T15:20:26.402Z,99526.44
2022-07-29T15:22:56.518Z,99531.84
2022-07-29T15:25:26.363Z,99540.16
2022-07-29T15:28:00.931Z,99529.66
2022-07-29T15:30:34.451Z,99527.59
2022-07-29T15:33:04.573Z,99523.94
2022-07-29T15:35:40.565Z,99524.53
2022-07-29T15:38:09.438Z,99518.28
2022-07-29T15:40:44.581Z,99518.78
2022-07-29T15:43:12.966Z,99515.03
2022-07-29T15:46:03.683Z,99515.34
2022-07-29T15:48:32.524Z,99511.97
2022-07-29T15:51:01.185Z,99506.66
2022-07-29T15:53:29.644Z,99506.84
2022-07-29T15:55:57.803Z,99503.06
2022-07-29T15:58:26.231Z,99509.84
2022-07-29T16:00:54.391Z,99498.16
2022-07-29T16:03:23.127Z,99497.19
2022-07-29T16:05:51.315Z,99492.41
2022-07-29T16:08:19.765Z,99489.78
2022-07-29T16:10:48.330Z,99495.09
2022-07-29T16:13:17.849Z,99491.28
2022-07-29T16:16:01.997Z,99496.88
2022-07-29T16:18:31.034Z,99498.97
2022-07-29T16:20:59.440Z,99492.69
2022-07-29T16:23:27.482Z,99494.28
2022-07-29T16:26:00.526Z,99497.03
2022-07-29T16:28:30.339Z,99493.16
2022-07-29T16:30:58.629Z,99502.91
2022-07-29T16:33:27.174Z,99496.00
2022-07-29T16:35:55.722Z,99500.09
2022-07-29T16:38:24.002Z,99491.31
2022-07-29T16:40:52.304Z,99494.38
2022-07-29T16:43:20.741Z,99492.88
2022-07-29T16:45:48.974Z,99488.25
2022-07-29T16:48:18.221Z,99491.88
2022-07-29T16:50:47.301Z,99495.25
2022-07-29T16:53:15.613Z,99498.87
2022-07-29T16:55:43.957Z,99487.19
2022-07-29T16:58:12.811Z,99490.53
2022-07-29T17:00:43.481Z,99495.47
2022-07-29T17:03:11.686Z,99489.09
2022-07-29T17:05:52.245Z,99489.75
2022-07-29T17:08:23.274Z,99488.78
2022-07-29T17:10:51.944Z,99486.41
2022-07-29T17:13:20.289Z,99486.03
2022-07-29T17:15:48.590Z,99491.25
2022-07-29T17:18:17.533Z,99489.66
2022-07-29T17:20:45.720Z,99494.06
2022-07-29T17:23:13.928Z,99492.50
2022-07-29T17:25:42.552Z,99491.28
2022-07-29T17:28:10.698Z,99492.78
2022-07-29T17:30:38.901Z,99499.06
2022-07-29T17:33:08.732Z,99494.62
2022-07-29T17:35:55.441Z,99493.16
2022-07-29T17:38:23.893Z,99492.25
2022-07-29T17:40:52.012Z,99495.25
2022-07-29T17:43:20.253Z,99492.56
2022-07-29T17:45:50.776Z,99492.81
2022-07-29T17:48:20.067Z,99496.56
2022-07-29T17:50:49.257Z,99495.53
2022-07-29T17:53:20.012Z,99499.16
2022-07-29T17:55:51.259Z,99497.91
2022-07-29T17:58:19.752Z,99492.03
2022-07-29T18:00:48.407Z,99503.34
2022-07-29T18:03:17.361Z,99493.53
2022-07-29T18:05:45.696Z,99490.84
2022-07-29T18:08:13.849Z,99505.97
2022-07-29T18:10:43.160Z,99505.37
2022-07-29T18:13:12.861Z,99517.84
2022-07-29T18:15:41.114Z,99522.56
2022-07-29T18:18:09.878Z,99521.66
2022-07-29T18:20:38.508Z,99530.44
2022-07-29T18:23:06.702Z,99525.50
2022-07-29T18:25:35.040Z,99529.34
2022-07-29T18:28:04.194Z,99526.75
2022-07-29T18:30:34.509Z,99535.31
2022-07-29T18:33:21.310Z,99532.72
2022-07-29T18:35:52.478Z,99541.31
2022-07-29T18:38:36.046Z,99540.88
2022-07-29T18:41:05.888Z,99547.59
2022-07-29T18:43:33.981Z,99552.13
2022-07-29T18:46:02.710Z,99556.41
2022-07-29T18:48:33.471Z,99556.41
2022-07-29T18:51:01.728Z,99566.59
2022-07-29T18:53:30.231Z,99564.22
2022-07-29T18:56:00.303Z,99566.63
2022-07-29T18:58:28.839Z,99569.03
2022-07-29T19:00:57.298Z,99567.69
2022-07-29T19:03:25.675Z,99573.00
2022-07-29T19:05:53.713Z,99574.37
2022-07-29T19:08:22.279Z,99577.34
2022-07-29T19:10:50.871Z,99576.28
2022-07-29T19:13:19.179Z,99574.37
2022-07-29T19:15:48.195Z,99578.94
2022-07-29T19:18:16.477Z,99580.25
2022-07-29T19:20:44.623Z,99586.91
2022-07-29T19:23:13.247Z,99582.87
2022-07-29T19:25:48.317Z,99593.56
2022-07-29T19:28:22.941Z,99581.03
2022-07-29T19:30:51.790Z,99586.34
2022-07-29T19:33:20.504Z,99587.41
2022-07-29T19:35:54.316Z,99586.28
2022-07-29T19:38:23.474Z,99591.13
2022-07-29T19:40:52.518Z,99593.41
2022-07-29T19:43:50.721Z,99592.59
2022-07-29T19:46:09.329Z,99591.81
2022-07-29T19:48:37.543Z,99590.75
2022-07-29T19:51:05.683Z,99589.16
2022-07-29T19:53:34.189Z,99588.34
2022-07-29T19:56:02.262Z,99592.25
2022-07-29T19:58:32.053Z,99596.25
2022-07-29T20:01:01.297Z,99594.38
2022-07-29T20:03:29.816Z,99594.09
2022-07-29T20:05:58.304Z,99591.13
2022-07-29T20:08:26.485Z,99600.44
2022-07-29T20:10:56.006Z,99588.75
2022-07-29T20:13:25.111Z,99596.22
2022-07-29T20:15:53.656Z,99587.28
2022-07-29T20:18:22.320Z,99588.28
2022-07-29T20:20:50.762Z,99601.56
2022-07-29T20:23:19.605Z,99588.72
2022-07-29T20:25:48.666Z,99596.63
2022-07-29T20:28:17.783Z,99597.19
2022-07-29T20:30:47.488Z,99589.13
2022-07-29T20:33:16.651Z,99598.09
2022-07-29T20:35:44.812Z,99600.25
2022-07-29T20:38:18.041Z,99604.50
2022-07-29T20:40:47.336Z,99607.16
2022-07-29T20:43:15.937Z,99614.97
2022-07-29T20:45:44.093Z,99612.75
2022-07-29T20:48:13.887Z,99620.31
2022-07-29T20:50:42.929Z,99627.09
2022-07-29T20:53:12.944Z,99626.50
2022-07-29T20:55:41.339Z,99630.25
2022-07-29T20:58:09.684Z,99630.81
2022-07-29T21:00:37.798Z,99635.37
2022-07-29T21:03:06.218Z,99633.97
2022-07-29T21:05:36.444Z,99637.38
2022-07-29T21:08:05.029Z,99634.41
2022-07-29T21:10:33.643Z,99634.38
2022-07-29T21:13:02.015Z,99632.12
2022-07-29T21:15:30.453Z,99630.88
2022-07-29T21:18:06.274Z,99630.56
2022-07-29T21:20:34.519Z,99632.94
2022-07-29T21:23:03.366Z,99634.09
2022-07-29T21:25:31.482Z,99635.06
2022-07-29T21:28:18.309Z,99630.44
2022-07-29T21:30:47.187Z,99631.22
2022-07-29T21:33:15.399Z,99639.72
2022-07-29T21:36:06.311Z,99647.03
2022-07-29T21:38:32.927Z,99647.59
2022-07-29T21:41:01.748Z,99649.78
2022-07-29T21:43:30.267Z,99659.44
2022-07-29T21:46:00.672Z,99649.78
2022-07-29T21:48:29.158Z,99649.66
2022-07-29T21:50:57.652Z,99650.34
2022-07-29T21:53:28.476Z,99653.78
2022-07-29T21:55:56.962Z,99654.81
2022-07-29T21:58:25.270Z,99667.78
2022-07-29T22:00:54.278Z,99671.41
2022-07-29T22:03:22.809Z,99673.22
2022-07-29T22:05:53.565Z,99679.47
2022-07-29T22:08:21.958Z,99679.16
2022-07-29T22:10:50.438Z,99681.56
2022-07-29T22:13:18.601Z,99671.66
2022-07-29T22:15:47.413Z,99672.72
2022-07-29T22:18:20.992Z,99671.84
2022-07-29T22:20:50.687Z,99673.53
2022-07-29T22:23:19.065Z,99669.50
2022-07-29T22:25:47.272Z,99675.50
2022-07-29T22:28:15.643Z,99672.44
2022-07-29T22:30:44.078Z,99676.62
2022-07-29T22:33:16.858Z,99677.06
2022-07-29T22:35:48.690Z,99671.94
2022-07-29T22:38:18.517Z,99671.78
2022-07-29T22:40:48.734Z,99659.16
2022-07-29T22:43:18.945Z,99663.44
2022-07-29T22:45:47.446Z,99670.34
2022-07-29T22:48:15.658Z,99664.34
2022-07-29T22:50:43.960Z,99655.94
2022-07-29T22:53:12.430Z,99664.00
2022-07-29T22:55:40.590Z,99662.09
2022-07-29T22:58:08.838Z,99652.88
2022-07-29T23:00:37.342Z,99654.00
2022-07-29T23:03:05.460Z,99657.66
2022-07-29T23:05:33.738Z,99647.16
2022-07-29T23:08:02.178Z,99651.97
2022-07-29T23:10:30.334Z,99656.53
2022-07-29T23:12:58.642Z,99639.75
2022-07-29T23:15:27.755Z,99639.22
2022-07-29T23:17:55.905Z,99650.06
2022-07-29T23:20:24.172Z,99645.56
2022-07-29T23:22:56.258Z,99640.84
2022-07-29T23:25:24.450Z,99636.22
2022-07-29T23:27:53.382Z,99633.09
2022-07-29T23:30:21.480Z,99632.53
2022-07-29T23:32:49.877Z,99626.50
2022-07-29T23:35:18.781Z,99622.94
2022-07-29T23:37:46.900Z,99617.41
2022-07-29T23:40:15.616Z,99617.12
2022-07-29T23:42:44.756Z,99605.50
2022-07-29T23:45:16.022Z,99615.56
2022-07-29T23:47:44.460Z,99618.56
2022-07-29T23:50:13.356Z,99615.84
2022-07-29T23:52:41.967Z,99613.72
2022-07-29T23:55:36.853Z,99622.13
2022-07-29T23:58:00.596Z,99627.59
